Time;durP1;ratioP1;P1;durP2;ratioP2;P2;SDS_P1;SDS_P2;PMS_P1;PMS_P2;Temp;Humidity;BMP_temperature;BMP_pressure;BME280_temperature;BME280_humidity;BME280_pressure;Samples;Min_cycle;Max_cycle;Signal;HPM_P1;HPM_P2
2021/10/06 00:01:37;;;;;;;10.48;8.80;;;25.10;99.90;;;;;;5028538;28;20053;-61
2021/10/06 00:04:02;;;;;;;11.20;8.77;;;25.10;99.90;;;;;;5033170;28;20905;-61
2021/10/06 00:06:28;;;;;;;13.30;9.10;;;25.10;99.90;;;;;;5034295;28;20025;-61
2021/10/06 00:08:54;;;;;;;12.10;9.00;;;25.20;99.90;;;;;;5030951;28;20053;-61
2021/10/06 00:11:19;;;;;;;11.32;8.60;;;25.10;99.90;;;;;;5053196;28;20119;-61
2021/10/06 00:13:46;;;;;;;12.98;9.43;;;25.10;99.90;;;;;;5034044;28;20023;-61
2021/10/06 00:16:13;;;;;;;14.77;9.05;;;25.20;99.90;;;;;;5029985;28;20034;-61
2021/10/06 00:18:39;;;;;;;12.15;9.05;;;25.10;99.90;;;;;;5026945;28;20494;-61
2021/10/06 00:21:06;;;;;;;10.35;8.73;;;25.10;99.90;;;;;;5030739;28;20459;-61
2021/10/06 00:23:32;;;;;;;10.57;8.77;;;25.10;99.90;;;;;;5035726;28;20040;-61
2021/10/06 00:25:59;;;;;;;8.95;7.65;;;25.10;99.90;;;;;;5037820;28;20045;-61
2021/10/06 00:28:25;;;;;;;12.85;9.07;;;25.10;99.90;;;;;;5034171;28;20024;-61
2021/10/06 00:30:51;;;;;;;12.98;8.98;;;25.10;99.90;;;;;;5032847;28;20476;-61
2021/10/06 00:33:16;;;;;;;12.43;8.85;;;25.20;99.90;;;;;;5033869;28;20033;-61
2021/10/06 00:35:42;;;;;;;11.20;9.07;;;25.30;99.90;;;;;;5036225;28;20029;-61
2021/10/06 00:38:08;;;;;;;10.15;7.50;;;25.00;99.90;;;;;;5032621;28;20084;-61
2021/10/06 00:40:35;;;;;;;11.75;7.72;;;25.10;99.90;;;;;;5032806;28;20151;-61
2021/10/06 00:43:00;;;;;;;12.00;7.80;;;25.10;99.90;;;;;;5033261;28;20026;-61
2021/10/06 00:45:26;;;;;;;10.13;6.90;;;25.10;99.90;;;;;;5038486;28;20174;-62
2021/10/06 00:47:52;;;;;;;9.25;7.38;;;25.20;99.90;;;;;;5033316;28;20029;-61
2021/10/06 00:50:17;;;;;;;11.10;7.13;;;25.10;99.90;;;;;;5026062;28;20124;-61
2021/10/06 00:52:45;;;;;;;11.45;7.38;;;25.00;99.90;;;;;;5031827;28;20040;-61
2021/10/06 00:55:14;;;;;;;10.88;6.35;;;25.10;99.90;;;;;;5031651;28;20029;-61
2021/10/06 00:57:39;;;;;;;9.98;6.70;;;25.00;99.90;;;;;;5031665;28;20036;-61
2021/10/06 01:00:06;;;;;;;9.98;7.07;;;25.10;99.90;;;;;;5040065;28;20025;-61
2021/10/06 01:02:31;;;;;;;12.65;7.07;;;25.20;99.90;;;;;;5034815;28;20125;-61
2021/10/06 01:04:57;;;;;;;9.93;7.03;;;25.10;99.90;;;;;;5032597;28;20112;-61
2021/10/06 01:07:23;;;;;;;9.32;6.53;;;25.10;99.90;;;;;;5033633;28;20018;-61
2021/10/06 01:09:48;;;;;;;12.05;7.10;;;25.10;99.90;;;;;;5030455;28;20038;-61
2021/10/06 01:12:14;;;;;;;9.77;7.05;;;25.00;99.90;;;;;;5017952;28;20048;-61
2021/10/06 01:14:40;;;;;;;7.25;6.35;;;25.00;99.90;;;;;;5036220;28;20104;-61
2021/10/06 01:17:06;;;;;;;9.65;6.22;;;25.00;99.90;;;;;;5038404;28;20071;-61
2021/10/06 01:19:32;;;;;;;8.85;6.40;;;25.00;99.90;;;;;;5026512;28;20026;-61
2021/10/06 01:21:59;;;;;;;10.07;6.50;;;24.90;99.90;;;;;;5030804;28;20029;-61
2021/10/06 01:24:25;;;;;;;8.05;6.25;;;25.00;99.90;;;;;;5031991;28;20042;-61
2021/10/06 01:26:51;;;;;;;8.73;6.63;;;25.10;99.90;;;;;;5032725;28;20053;-61
2021/10/06 01:29:17;;;;;;;9.43;6.78;;;25.00;99.90;;;;;;5032920;28;20095;-61
2021/10/06 01:31:44;;;;;;;9.50;6.18;;;25.20;99.90;;;;;;5053353;28;20118;-61
2021/10/06 01:34:10;;;;;;;9.38;6.20;;;25.20;99.90;;;;;;5025804;28;20026;-61
2021/10/06 01:36:37;;;;;;;10.27;6.80;;;25.10;99.90;;;;;;5027120;28;20056;-61
2021/10/06 01:39:07;;;;;;;9.55;6.55;;;25.20;99.90;;;;;;5031327;28;20438;-61
2021/10/06 01:41:36;;;;;;;8.82;6.55;;;25.10;99.90;;;;;;5051795;28;20033;-61
2021/10/06 01:44:03;;;;;;;12.70;6.38;;;25.20;99.90;;;;;;5032596;28;20483;-61
2021/10/06 01:46:29;;;;;;;12.32;6.70;;;25.20;99.90;;;;;;5040870;28;20053;-61
2021/10/06 01:48:55;;;;;;;10.45;6.55;;;25.00;99.90;;;;;;5031714;28;20491;-61
2021/10/06 01:51:21;;;;;;;8.25;6.47;;;25.10;99.90;;;;;;5031187;28;20040;-61
2021/10/06 01:53:46;;;;;;;8.95;6.55;;;25.00;99.90;;;;;;5032580;28;20120;-61
2021/10/06 01:56:12;;;;;;;12.95;7.35;;;25.00;99.90;;;;;;5026279;28;20084;-61
2021/10/06 01:58:38;;;;;;;7.93;6.63;;;25.10;99.90;;;;;;5023434;28;20030;-61
2021/10/06 02:01:04;;;;;;;8.57;6.65;;;25.10;99.90;;;;;;5042268;28;20092;-61
2021/10/06 02:03:30;;;;;;;7.22;6.53;;;25.30;99.90;;;;;;5047781;28;20390;-61
2021/10/06 02:05:57;;;;;;;8.55;6.55;;;25.20;99.90;;;;;;5045870;28;20040;-61
2021/10/06 02:08:23;;;;;;;8.48;6.78;;;25.10;99.90;;;;;;5035026;28;20022;-61
2021/10/06 02:10:49;;;;;;;8.02;7.07;;;25.00;99.90;;;;;;5034329;28;20048;-61
2021/10/06 02:13:15;;;;;;;11.75;7.20;;;24.90;99.90;;;;;;5035521;28;20593;-61
2021/10/06 02:15:41;;;;;;;11.98;7.88;;;25.20;99.90;;;;;;5046594;28;20399;-61
2021/10/06 02:18:07;;;;;;;11.00;7.40;;;25.00;99.90;;;;;;5037364;28;20030;-61
2021/10/06 02:20:33;;;;;;;10.68;7.72;;;25.00;99.90;;;;;;5037430;28;20115;-61
2021/10/06 02:22:59;;;;;;;11.52;8.15;;;25.10;99.90;;;;;;5035082;28;20040;-61
2021/10/06 02:25:24;;;;;;;10.38;8.48;;;25.00;99.90;;;;;;5035018;28;20053;-61
2021/10/06 02:27:50;;;;;;;13.85;9.02;;;24.90;99.90;;;;;;5034981;28;20025;-61
2021/10/06 02:30:17;;;;;;;9.80;8.20;;;24.90;99.90;;;;;;5035585;28;20113;-61
2021/10/06 02:32:43;;;;;;;9.52;8.07;;;24.90;99.90;;;;;;5029356;28;20045;-61
2021/10/06 02:35:11;;;;;;;11.07;7.95;;;24.80;99.90;;;;;;5027593;28;20037;-61
2021/10/06 02:37:38;;;;;;;10.32;8.15;;;24.90;99.90;;;;;;5046111;28;20507;-61
2021/10/06 02:40:07;;;;;;;9.85;8.18;;;24.90;99.90;;;;;;5034714;28;20119;-61
2021/10/06 02:42:32;;;;;;;9.57;8.55;;;25.00;99.90;;;;;;5035755;28;20045;-61
2021/10/06 02:44:58;;;;;;;15.73;8.57;;;25.00;99.90;;;;;;5032988;28;20064;-61
2021/10/06 02:47:23;;;;;;;10.35;8.57;;;24.90;99.90;;;;;;5035947;28;20025;-61
2021/10/06 02:49:49;;;;;;;11.88;9.40;;;24.90;99.90;;;;;;5029747;28;20476;-61
2021/10/06 02:52:15;;;;;;;27.90;14.68;;;24.80;99.90;;;;;;5041266;28;20026;-60
2021/10/06 02:54:40;;;;;;;23.77;13.70;;;;;;;;;;5028864;28;20112;-60
2021/10/06 02:57:06;;;;;;;18.70;12.95;;;;;;;;;;5034414;28;20483;-59
2021/10/06 02:59:33;;;;;;;19.30;14.02;;;24.20;99.90;;;;;;5041426;28;20081;-59
2021/10/06 03:01:59;;;;;;;17.55;14.60;;;24.00;99.90;;;;;;5034732;28;20469;-59
2021/10/06 03:04:24;;;;;;;21.73;15.25;;;23.70;99.90;;;;;;5019334;28;20077;-58
2021/10/06 03:06:50;;;;;;;22.00;16.02;;;24.20;99.90;;;;;;5033631;28;20034;-59
2021/10/06 03:09:16;;;;;;;23.80;16.88;;;24.00;99.90;;;;;;5033401;28;20132;-58
2021/10/06 03:11:43;;;;;;;22.77;18.50;;;24.20;99.90;;;;;;5038996;28;20548;-59
2021/10/06 03:14:09;;;;;;;24.63;19.33;;;24.10;99.90;;;;;;5029765;28;20033;-59
2021/10/06 03:16:35;;;;;;;24.23;18.80;;;24.20;99.90;;;;;;5034771;28;20429;-59
2021/10/06 03:19:01;;;;;;;27.50;19.05;;;24.20;99.90;;;;;;5033615;28;20029;-59
2021/10/06 03:21:27;;;;;;;25.55;20.85;;;24.30;99.90;;;;;;5029174;28;20175;-59
2021/10/06 03:23:53;;;;;;;29.55;21.40;;;24.40;99.90;;;;;;5032604;28;20026;-59
2021/10/06 03:26:18;;;;;;;29.85;22.33;;;24.30;99.90;;;;;;5034521;28;20060;-59
2021/10/06 03:28:44;;;;;;;30.70;23.33;;;24.30;99.90;;;;;;5023891;28;20119;-59
2021/10/06 03:31:10;;;;;;;31.23;25.92;;;24.30;99.90;;;;;;5030580;28;20036;-60
2021/10/06 03:33:35;;;;;;;32.20;22.92;;;24.30;99.90;;;;;;5033860;28;20044;-60
2021/10/06 03:36:01;;;;;;;29.90;23.17;;;24.30;99.90;;;;;;5035829;28;20058;-60
2021/10/06 03:38:27;;;;;;;35.63;27.48;;;24.30;99.90;;;;;;5019746;28;20034;-60
2021/10/06 03:40:52;;;;;;;36.65;26.65;;;24.10;99.90;;;;;;5032677;28;20037;-60
2021/10/06 03:43:18;;;;;;;39.22;26.05;;;24.20;99.90;;;;;;5033371;28;20021;-60
2021/10/06 03:45:43;;;;;;;27.80;21.98;;;24.20;99.90;;;;;;5038347;28;20044;-60
2021/10/06 03:48:09;;;;;;;28.35;22.73;;;24.10;99.90;;;;;;5040730;28;20064;-60
2021/10/06 03:50:35;;;;;;;32.03;26.15;;;24.10;99.90;;;;;;5032040;28;20438;-60
2021/10/06 03:53:02;;;;;;;32.20;26.70;;;24.10;99.90;;;;;;5032207;28;20030;-60
2021/10/06 03:55:28;;;;;;;32.70;26.40;;;24.10;99.90;;;;;;5037753;28;20415;-60
2021/10/06 03:57:54;;;;;;;34.58;24.38;;;24.10;99.90;;;;;;5034218;28;20060;-60
2021/10/06 04:00:19;;;;;;;29.95;24.15;;;24.00;99.90;;;;;;5024745;28;20065;-59
2021/10/06 04:02:45;;;;;;;29.00;23.27;;;24.10;99.90;;;;;;5033545;28;20029;-60
2021/10/06 04:05:11;;;;;;;31.35;24.70;;;24.10;99.90;;;;;;5033753;28;20037;-59
2021/10/06 04:07:37;;;;;;;34.35;27.30;;;24.10;99.90;;;;;;5034213;28;20099;-59
2021/10/06 04:10:04;;;;;;;31.20;26.50;;;24.10;99.90;;;;;;5030923;28;20448;-59
2021/10/06 04:12:30;;;;;;;33.42;27.35;;;24.10;99.90;;;;;;5032383;28;20072;-59
2021/10/06 04:14:56;;;;;;;35.30;27.50;;;24.10;99.90;;;;;;5033694;28;20060;-59
2021/10/06 04:17:21;;;;;;;29.77;25.30;;;24.20;99.90;;;;;;5046104;28;20051;-60
2021/10/06 04:19:47;;;;;;;32.65;26.23;;;24.20;99.90;;;;;;5032887;28;20036;-60
2021/10/06 04:22:12;;;;;;;29.75;26.25;;;24.00;99.90;;;;;;5032564;28;20056;-60
2021/10/06 04:24:38;;;;;;;34.75;27.50;;;24.10;99.90;;;;;;5032181;28;20036;-59
2021/10/06 04:27:04;;;;;;;37.78;28.98;;;24.10;99.90;;;;;;5020104;28;20109;-59
2021/10/06 04:29:29;;;;;;;41.58;31.70;;;24.10;99.90;;;;;;5022753;28;20176;-59
2021/10/06 04:31:55;;;;;;;39.33;29.58;;;24.10;99.90;;;;;;5041523;28;20033;-59
2021/10/06 04:34:21;;;;;;;40.55;32.75;;;24.20;99.90;;;;;;5028823;28;20475;-59
2021/10/06 04:36:46;;;;;;;38.22;29.55;;;24.30;99.90;;;;;;5033244;28;20376;-60
2021/10/06 04:39:12;;;;;;;43.45;32.35;;;24.30;99.90;;;;;;5032353;28;20028;-60
2021/10/06 04:41:38;;;;;;;43.58;33.22;;;24.40;99.90;;;;;;5030820;28;20057;-60
2021/10/06 04:44:03;;;;;;;44.92;34.72;;;24.40;99.90;;;;;;5031524;28;20033;-60
2021/10/06 04:46:29;;;;;;;42.17;33.65;;;24.40;99.90;;;;;;5038289;28;20029;-60
2021/10/06 04:48:55;;;;;;;45.38;33.75;;;24.40;99.90;;;;;;5032498;28;20033;-60
2021/10/06 04:51:21;;;;;;;45.40;32.65;;;24.30;99.90;;;;;;5030264;28;20037;-60
2021/10/06 04:53:47;;;;;;;46.30;34.05;;;24.40;99.90;;;;;;5033269;28;20026;-60
2021/10/06 04:56:12;;;;;;;54.47;35.95;;;24.30;99.90;;;;;;5037515;28;20021;-60
2021/10/06 04:58:38;;;;;;;49.42;37.13;;;24.30;99.90;;;;;;5033275;28;20029;-60
2021/10/06 05:01:03;;;;;;;49.25;36.55;;;24.30;99.90;;;;;;5031967;28;20072;-60
2021/10/06 05:03:29;;;;;;;50.75;37.35;;;24.30;99.90;;;;;;5031647;28;20030;-60
2021/10/06 05:05:55;;;;;;;52.92;38.47;;;24.30;99.90;;;;;;5031464;28;20516;-60
2021/10/06 05:08:21;;;;;;;62.58;42.45;;;24.10;99.90;;;;;;5032539;28;20092;-60
2021/10/06 05:10:47;;;;;;;57.97;40.45;;;24.20;99.90;;;;;;5030697;28;20474;-59
2021/10/06 05:13:12;;;;;;;66.35;43.33;;;24.10;99.90;;;;;;5032257;28;20021;-60
2021/10/06 05:15:38;;;;;;;77.05;50.20;;;24.20;99.90;;;;;;5031902;28;20056;-60
2021/10/06 05:18:04;;;;;;;80.78;51.75;;;24.30;99.90;;;;;;5032461;28;20053;-60
2021/10/06 05:20:29;;;;;;;81.20;49.75;;;24.30;99.90;;;;;;5031832;28;20108;-60
2021/10/06 05:22:55;;;;;;;68.88;45.28;;;24.30;99.90;;;;;;5045987;28;20030;-60
2021/10/06 05:25:21;;;;;;;70.60;47.10;;;24.30;99.90;;;;;;5037883;28;20051;-60
2021/10/06 05:27:47;;;;;;;60.55;42.30;;;24.30;99.90;;;;;;5031798;28;20037;-60
2021/10/06 05:30:13;;;;;;;74.60;46.92;;;24.30;99.90;;;;;;5032952;28;20036;-60
2021/10/06 05:32:39;;;;;;;66.55;43.33;;;24.40;99.90;;;;;;5029524;28;20048;-60
2021/10/06 05:35:06;;;;;;;68.22;46.10;;;24.30;99.90;;;;;;5032362;28;20029;-60
2021/10/06 05:37:32;;;;;;;62.13;42.35;;;24.40;99.90;;;;;;5045940;28;20120;-60
2021/10/06 05:39:57;;;;;;;58.13;38.67;;;24.50;99.90;;;;;;5052807;28;20091;-60
2021/10/06 05:42:23;;;;;;;51.08;34.72;;;24.40;99.90;;;;;;5037393;28;20029;-60
2021/10/06 05:44:49;;;;;;;47.17;33.28;;;24.40;99.90;;;;;;5031028;28;20116;-61
2021/10/06 05:47:14;;;;;;;29.80;21.50;;;24.40;99.90;;;;;;5040779;28;20045;-60
2021/10/06 05:49:40;;;;;;;17.52;13.50;;;24.40;99.90;;;;;;5048874;28;20018;-61
2021/10/06 05:52:05;;;;;;;16.95;12.45;;;24.40;99.90;;;;;;5029815;28;20081;-60
2021/10/06 05:54:31;;;;;;;14.85;10.80;;;24.40;99.90;;;;;;5030232;28;20030;-60
2021/10/06 05:56:57;;;;;;;9.75;8.20;;;24.30;99.90;;;;;;5031762;28;20083;-61
2021/10/06 05:59:22;;;;;;;7.68;5.68;;;24.30;99.90;;;;;;5032604;28;20029;-61
2021/10/06 06:01:48;;;;;;;4.70;4.28;;;24.20;99.90;;;;;;5031593;28;20069;-60
2021/10/06 06:04:17;;;;;;;6.00;4.05;;;24.20;99.90;;;;;;5032524;28;20037;-60
2021/10/06 06:06:43;;;;;;;4.18;3.47;;;24.20;99.90;;;;;;5031739;28;20064;-61
2021/10/06 06:09:09;;;;;;;4.47;2.80;;;24.20;99.90;;;;;;5032673;28;20030;-60
2021/10/06 06:11:35;;;;;;;4.43;2.42;;;24.20;99.90;;;;;;5036139;28;20040;-61
2021/10/06 06:14:01;;;;;;;3.03;2.15;;;24.20;99.90;;;;;;5051975;28;20112;-61
2021/10/06 06:16:27;;;;;;;3.20;1.85;;;24.10;99.90;;;;;;5045070;28;20057;-61
2021/10/06 06:18:53;;;;;;;3.58;2.05;;;24.10;99.90;;;;;;5017024;28;20026;-60
2021/10/06 06:21:18;;;;;;;3.53;1.88;;;24.10;99.90;;;;;;5031056;28;20029;-60
2021/10/06 06:23:44;;;;;;;2.38;1.45;;;24.00;99.90;;;;;;5031446;28;20548;-60
2021/10/06 06:26:10;;;;;;;3.38;1.35;;;24.10;99.90;;;;;;5032192;28;20030;-60
2021/10/06 06:28:38;;;;;;;2.65;1.77;;;24.00;99.90;;;;;;5016880;28;20029;-60
2021/10/06 06:31:05;;;;;;;5.20;1.90;;;24.00;99.90;;;;;;5051705;28;20049;-60
2021/10/06 06:33:31;;;;;;;2.70;1.25;;;24.00;99.90;;;;;;5052217;28;20028;-59
2021/10/06 06:35:57;;;;;;;2.30;1.30;;;24.00;99.90;;;;;;5030919;28;20025;-60
2021/10/06 06:38:22;;;;;;;1.80;1.58;;;24.00;99.90;;;;;;5041204;28;20147;-59
2021/10/06 06:40:48;;;;;;;1.90;1.20;;;24.00;99.90;;;;;;5048747;28;20032;-60
2021/10/06 06:43:13;;;;;;;3.17;1.50;;;24.00;99.90;;;;;;5055038;28;20074;-60
2021/10/06 06:45:40;;;;;;;1.90;1.27;;;23.90;99.90;;;;;;5036781;28;20060;-59
2021/10/06 06:48:06;;;;;;;1.58;1.40;;;24.00;99.90;;;;;;5034462;28;20028;-59
2021/10/06 06:50:32;;;;;;;2.85;1.27;;;24.10;99.90;;;;;;5027988;28;20479;-60
2021/10/06 06:52:58;;;;;;;1.48;1.27;;;24.10;99.90;;;;;;5027588;28;20056;-60
2021/10/06 06:55:23;;;;;;;3.05;1.30;;;24.10;99.90;;;;;;5037099;28;20213;-60
2021/10/06 06:57:49;;;;;;;1.13;0.93;;;24.10;99.90;;;;;;5035136;28;20032;-60
2021/10/06 07:00:15;;;;;;;2.53;1.35;;;24.10;99.90;;;;;;5054588;28;20037;-60
2021/10/06 07:02:41;;;;;;;1.60;1.17;;;24.10;99.90;;;;;;5040982;28;20028;-60
2021/10/06 07:05:07;;;;;;;4.03;1.45;;;24.10;99.90;;;;;;5034628;28;20037;-60
2021/10/06 07:07:32;;;;;;;1.83;1.17;;;24.20;99.90;;;;;;5034226;28;20406;-60
2021/10/06 07:09:58;;;;;;;4.70;2.80;;;24.20;99.90;;;;;;5051216;28;20042;-61
2021/10/06 07:12:24;;;;;;;3.70;1.40;;;24.30;99.90;;;;;;5055439;28;20071;-60
2021/10/06 07:14:50;;;;;;;2.88;1.20;;;24.30;99.90;;;;;;5038115;28;20033;-60
2021/10/06 07:17:18;;;;;;;4.53;1.50;;;24.40;99.90;;;;;;5043205;28;20097;-61
2021/10/06 07:19:43;;;;;;;3.67;1.20;;;24.50;99.90;;;;;;5052659;28;20040;-61
2021/10/06 07:22:09;;;;;;;3.15;1.02;;;24.40;99.90;;;;;;5047030;28;20029;-61
2021/10/06 07:24:35;;;;;;;3.70;0.63;;;24.40;99.90;;;;;;5052869;28;20040;-61
2021/10/06 07:27:01;;;;;;;1.05;0.63;;;24.40;99.90;;;;;;5055174;28;20069;-61
2021/10/06 07:29:27;;;;;;;0.60;0.52;;;24.40;99.90;;;;;;5053062;28;20040;-61
2021/10/06 07:31:52;;;;;;;3.15;0.77;;;24.40;99.90;;;;;;5055059;28;20021;-62
2021/10/06 07:34:18;;;;;;;3.42;1.27;;;24.50;99.90;;;;;;5041756;28;20072;-59
2021/10/06 07:36:44;;;;;;;1.67;1.10;;;24.50;99.90;;;;;;5034968;28;20047;-60
2021/10/06 07:39:10;;;;;;;5.30;1.75;;;24.50;99.90;;;;;;5034158;28;20057;-60
2021/10/06 07:41:36;;;;;;;3.50;1.10;;;24.50;99.90;;;;;;5035167;28;20104;-60
2021/10/06 07:44:02;;;;;;;5.05;1.10;;;24.50;99.90;;;;;;5041109;28;20028;-60
2021/10/06 07:46:28;;;;;;;2.20;1.80;;;24.30;99.90;;;;;;5055038;28;20087;-60
2021/10/06 07:48:54;;;;;;;1.10;1.00;;;24.40;99.90;;;;;;5051668;28;20078;-60
2021/10/06 07:51:20;;;;;;;4.07;2.63;;;24.40;99.90;;;;;;5044966;28;20025;-60
2021/10/06 07:53:47;;;;;;;1.45;1.35;;;24.40;99.90;;;;;;5032112;28;20072;-60
2021/10/06 07:56:13;;;;;;;3.35;2.42;;;24.40;99.90;;;;;;5038135;28;20021;-60
2021/10/06 07:58:39;;;;;;;2.13;1.92;;;24.50;99.90;;;;;;5054625;28;20029;-61
2021/10/06 08:01:04;;;;;;;2.88;1.55;;;24.50;99.90;;;;;;5051839;28;20048;-61
2021/10/06 08:03:30;;;;;;;2.17;1.30;;;24.50;99.90;;;;;;5054421;28;20478;-61
2021/10/06 08:05:56;;;;;;;1.75;1.00;;;24.60;99.90;;;;;;5050959;28;20107;-61
2021/10/06 08:08:26;;;;;;;2.33;1.00;;;24.60;99.90;;;;;;5037733;28;20068;-61
2021/10/06 08:10:58;;;;;;;6.35;1.40;;;24.70;99.90;;;;;;5033733;28;20017;-61
2021/10/06 08:13:24;;;;;;;2.15;0.82;;;24.70;99.90;;;;;;5034633;28;20032;-61
2021/10/06 08:15:51;;;;;;;5.03;1.15;;;24.80;99.90;;;;;;5032506;28;20021;-61
2021/10/06 08:18:19;;;;;;;2.40;1.33;;;24.90;99.90;;;;;;5052613;28;20479;-61
2021/10/06 08:20:46;;;;;;;2.15;1.20;;;24.90;99.90;;;;;;5048165;28;20032;-61
2021/10/06 08:23:12;;;;;;;1.83;1.00;;;25.00;99.90;;;;;;5033529;28;20029;-61
2021/10/06 08:25:38;;;;;;;2.00;1.10;;;24.90;99.90;;;;;;5033704;28;20040;-61
2021/10/06 08:28:04;;;;;;;2.95;0.98;;;25.00;99.90;;;;;;5050941;28;20020;-61
2021/10/06 08:30:29;;;;;;;1.92;1.02;;;24.90;99.90;;;;;;5052801;28;20021;-61
2021/10/06 08:32:55;;;;;;;2.92;1.10;;;25.00;99.90;;;;;;5034549;28;20482;-61
2021/10/06 08:35:21;;;;;;;1.55;1.25;;;25.00;99.70;;;;;;5033971;28;20029;-61
2021/10/06 08:37:46;;;;;;;1.13;0.82;;;25.00;99.60;;;;;;5049249;28;20029;-61
2021/10/06 08:40:12;;;;;;;1.23;0.98;;;25.00;99.10;;;;;;5052288;28;20051;-61
2021/10/06 08:42:40;;;;;;;3.30;1.00;;;24.90;99.00;;;;;;5036055;28;20032;-62
2021/10/06 08:45:07;;;;;;;8.23;2.53;;;24.80;99.20;;;;;;5033625;28;20067;-61
2021/10/06 08:47:38;;;;;;;2.70;1.20;;;25.00;99.00;;;;;;5033208;28;20029;-61
2021/10/06 08:50:05;;;;;;;7.28;1.70;;;25.00;98.80;;;;;;5053700;28;20104;-61
2021/10/06 08:52:31;;;;;;;4.28;2.33;;;24.90;99.10;;;;;;5032157;28;20033;-61
2021/10/06 08:54:56;;;;;;;4.18;3.25;;;24.90;99.10;;;;;;5031312;28;20519;-61
2021/10/06 08:57:22;;;;;;;3.40;2.10;;;24.90;99.50;;;;;;5035301;28;20437;-61
2021/10/06 08:59:47;;;;;;;4.93;1.52;;;25.00;98.90;;;;;;5053598;28;20033;-61
2021/10/06 09:02:15;;;;;;;4.22;1.50;;;25.00;98.90;;;;;;5048402;28;20064;-61
2021/10/06 09:04:41;;;;;;;3.50;1.58;;;25.00;98.80;;;;;;5051555;28;20529;-61
2021/10/06 09:07:08;;;;;;;4.22;1.92;;;25.00;98.10;;;;;;5031950;28;20036;-61
2021/10/06 09:09:36;;;;;;;2.25;1.23;;;25.00;98.60;;;;;;5033420;28;20036;-61
2021/10/06 09:12:14;;;;;;;2.33;1.63;;;25.10;98.40;;;;;;5036588;28;20079;-61
2021/10/06 09:14:48;;;;;;;2.75;2.03;;;25.20;97.40;;;;;;5053647;28;20124;-61
2021/10/06 09:17:18;;;;;;;4.82;3.30;;;25.20;97.20;;;;;;5017316;28;20071;-61
2021/10/06 09:19:47;;;;;;;4.50;1.95;;;25.10;97.70;;;;;;5032001;28;20188;-61
2021/10/06 09:22:17;;;;;;;3.97;1.90;;;25.00;98.30;;;;;;5034964;28;20021;-61
2021/10/06 09:25:05;;;;;;;2.30;1.40;;;25.00;98.20;;;;;;5046340;28;20029;-61
2021/10/06 09:27:35;;;;;;;1.70;1.42;;;25.00;98.10;;;;;;5038550;28;20037;-61
2021/10/06 09:30:06;;;;;;;1.85;1.27;;;24.90;97.80;;;;;;5051806;28;20405;-61
